createdAt,value
2023-04-18T00:00:00.575Z,8.6
2023-04-18T00:05:00.870Z,4.7
2023-04-18T00:10:00.555Z,9.7
2023-04-18T00:15:00.552Z,6.1
2023-04-18T00:20:00.585Z,6.8
2023-04-18T00:25:00.656Z,7.9
2023-04-18T00:30:00.563Z,7.6
2023-04-18T00:35:00.689Z,8.3
2023-04-18T00:40:00.565Z,10.8
2023-04-18T00:45:00.504Z,5.8
2023-04-18T00:50:00.600Z,9.7
2023-04-18T00:55:00.464Z,11.9
2023-04-18T01:00:00.521Z,8.6
2023-04-18T01:05:00.471Z,10.1
2023-04-18T01:10:00.553Z,12.2
2023-04-18T01:15:00.522Z,9.4
2023-04-18T01:20:00.505Z,11.2
2023-04-18T01:25:00.508Z,8.3
2023-04-18T01:30:00.528Z,6.1
2023-04-18T01:35:00.548Z,8.3
2023-04-18T01:40:00.472Z,6.5
2023-04-18T01:45:00.528Z,9.0
2023-04-18T01:50:00.660Z,4.3
2023-04-18T01:55:00.505Z,6.1
2023-04-18T02:00:00.508Z,7.6
2023-04-18T02:05:00.535Z,8.6
2023-04-18T02:10:00.535Z,4.0
2023-04-18T02:15:00.600Z,10.1
2023-04-18T02:20:00.533Z,9.4
2023-04-18T02:25:00.487Z,10.8
2023-04-18T02:30:00.576Z,8.3
2023-04-18T02:35:00.503Z,6.1
2023-04-18T02:40:00.570Z,8.3
2023-04-18T02:45:00.505Z,9.0
2023-04-18T02:50:00.588Z,8.3
2023-04-18T02:55:00.530Z,10.8
2023-04-18T03:00:00.529Z,6.5
2023-04-18T03:05:00.682Z,9.7
2023-04-18T03:10:00.536Z,7.6
2023-04-18T03:15:00.504Z,8.6
2023-04-18T03:20:00.562Z,7.6
2023-04-18T03:25:00.519Z,9.0
2023-04-18T03:30:00.503Z,6.5
2023-04-18T03:35:00.535Z,8.3
2023-04-18T03:40:00.564Z,4.3
2023-04-18T03:45:00.460Z,6.8
2023-04-18T03:50:00.526Z,7.6
2023-04-18T03:55:00.513Z,5.4
2023-04-18T04:00:00.516Z,4.3
2023-04-18T04:05:00.655Z,3.6
2023-04-18T04:10:00.562Z,8.6
2023-04-18T04:15:00.467Z,8.3
2023-04-18T04:20:00.538Z,9.7
2023-04-18T04:25:00.515Z,6.8
2023-04-18T04:30:00.523Z,5.0
2023-04-18T04:35:00.636Z,9.4
2023-04-18T04:40:02.767Z,6.1
2023-04-18T04:45:00.662Z,7.6
2023-04-18T04:50:00.543Z,6.8
2023-04-18T04:55:00.502Z,6.5
2023-04-18T05:00:00.598Z,7.6
2023-04-18T05:05:00.528Z,9.7
2023-04-18T05:10:00.520Z,8.6
2023-04-18T05:15:00.519Z,3.6
2023-04-18T05:20:00.565Z,7.9
2023-04-18T05:25:00.501Z,5.4
2023-04-18T05:30:00.639Z,6.8
2023-04-18T05:35:00.520Z,8.6
2023-04-18T05:40:01.431Z,10.8
2023-04-18T05:45:00.528Z,5.0
2023-04-18T05:50:00.501Z,9.4
2023-04-18T05:55:00.518Z,11.9
2023-04-18T06:00:00.631Z,10.4
2023-04-18T06:05:01.161Z,13.3
2023-04-18T06:10:00.539Z,16.6
2023-04-18T06:15:00.509Z,12.6
2023-04-18T06:20:00.541Z,13.0
2023-04-18T06:25:00.523Z,9.7
2023-04-18T06:30:00.552Z,14.4
2023-04-18T06:35:00.550Z,12.6
2023-04-18T06:40:00.581Z,11.2
2023-04-18T06:45:00.598Z,14.8
2023-04-18T06:50:00.572Z,17.3
2023-04-18T06:55:00.623Z,13.3
2023-04-18T07:00:00.616Z,11.9
2023-04-18T07:05:00.597Z,15.8
2023-04-18T07:10:00.542Z,14.8
2023-04-18T07:15:00.536Z,9.0
2023-04-18T07:20:00.592Z,10.4
2023-04-18T07:25:00.543Z,14.8
2023-04-18T07:30:00.602Z,11.9
2023-04-18T07:35:00.524Z,14.8
2023-04-18T07:40:00.531Z,9.7
2023-04-18T07:45:00.524Z,14.4
2023-04-18T07:50:00.716Z,16.2
2023-04-18T07:55:00.510Z,15.1
2023-04-18T08:00:00.661Z,15.5
2023-04-18T08:05:01.188Z,9.4
2023-04-18T08:15:00.596Z,14.8
2023-04-18T08:20:00.605Z,10.8
2023-04-18T08:25:06.029Z,16.6
2023-04-18T08:30:00.914Z,9.7
2023-04-18T08:35:00.621Z,7.6
2023-04-18T08:40:00.625Z,12.2
2023-04-18T08:45:00.703Z,6.8
2023-04-18T08:50:00.637Z,8.6
2023-04-18T08:55:00.600Z,14.8
2023-04-18T09:00:00.650Z,10.1
2023-04-18T09:05:00.612Z,9.0
2023-04-18T09:10:00.610Z,10.1
2023-04-18T09:15:00.593Z,10.4
2023-04-18T09:20:00.606Z,13.3
2023-04-18T09:25:00.632Z,12.6
2023-04-18T09:30:00.642Z,13.3
2023-04-18T09:35:05.027Z,15.5
2023-04-18T09:40:00.568Z,15.8
2023-04-18T09:45:00.610Z,14.4
2023-04-18T09:50:00.702Z,16.2
2023-04-18T09:55:00.571Z,14.8
2023-04-18T10:00:00.693Z,12.6
2023-04-18T10:05:00.915Z,13.7
2023-04-18T10:10:00.589Z,13.0
2023-04-18T10:15:00.604Z,16.6
2023-04-18T10:20:00.609Z,9.0
2023-04-18T10:25:00.623Z,16.6
2023-04-18T10:30:00.713Z,13.7
2023-04-18T10:35:00.556Z,15.8
2023-04-18T10:40:00.690Z,15.8
2023-04-18T10:45:00.554Z,15.8
2023-04-18T10:50:00.650Z,12.2
2023-04-18T10:55:00.590Z,14.8
2023-04-18T11:00:00.617Z,16.2
2023-04-18T11:05:00.699Z,16.9
2023-04-18T11:10:00.644Z,11.9
2023-04-18T11:15:00.578Z,14.0
2023-04-18T11:20:00.709Z,12.2
2023-04-18T11:25:00.598Z,20.9
2023-04-18T11:30:00.684Z,17.3
2023-04-18T11:35:00.593Z,12.6
2023-04-18T11:40:00.760Z,16.6
2023-04-18T11:45:00.652Z,15.8
2023-04-18T11:50:00.623Z,15.5
2023-04-18T11:55:00.570Z,16.2
2023-04-18T12:00:00.606Z,9.7
2023-04-18T12:05:01.600Z,16.9
2023-04-18T12:10:00.586Z,13.3
2023-04-18T12:15:00.628Z,16.6
2023-04-18T12:20:00.620Z,13.7
2023-04-18T12:25:00.593Z,14.4
2023-04-18T12:30:00.609Z,8.6
2023-04-18T12:35:00.626Z,17.3
2023-04-18T12:40:00.643Z,9.4
2023-04-18T12:45:00.592Z,13.7
2023-04-18T12:50:00.613Z,19.1
2023-04-18T12:55:00.628Z,11.9
2023-04-18T13:00:00.689Z,15.8
2023-04-18T13:05:01.007Z,8.3
2023-04-18T13:10:00.601Z,14.8
2023-04-18T13:15:00.597Z,9.7
2023-04-18T13:20:00.638Z,15.5
2023-04-18T13:25:00.636Z,11.9
2023-04-18T13:30:00.595Z,14.4
2023-04-18T13:35:00.598Z,14.4
2023-04-18T13:40:00.677Z,10.8
2023-04-18T13:45:00.643Z,17.3
2023-04-18T13:50:00.681Z,13.3
2023-04-18T13:55:00.613Z,19.1
2023-04-18T14:00:00.610Z,15.8
2023-04-18T14:05:01.463Z,14.4
2023-04-18T14:10:00.620Z,13.7
2023-04-18T14:15:00.550Z,17.6
2023-04-18T14:20:02.084Z,24.8
2023-04-18T14:25:00.557Z,15.1
2023-04-18T14:30:00.656Z,16.6
2023-04-18T14:35:00.558Z,16.6
2023-04-18T14:40:00.619Z,14.4
2023-04-18T14:45:00.584Z,14.8
2023-04-18T14:50:00.684Z,16.2
2023-04-18T14:55:00.613Z,15.1
2023-04-18T15:00:00.577Z,16.6
2023-04-18T15:05:00.874Z,9.4
2023-04-18T15:10:00.639Z,18.7
2023-04-18T15:15:00.606Z,13.0
2023-04-18T15:20:00.629Z,15.1
2023-04-18T15:25:00.628Z,12.2
2023-04-18T15:30:00.616Z,15.8
2023-04-18T15:35:00.664Z,17.3
2023-04-18T15:40:00.626Z,20.9
2023-04-18T15:45:00.549Z,9.7
2023-04-18T15:50:00.700Z,17.6
2023-04-18T15:55:00.566Z,13.7
2023-04-18T16:00:00.600Z,15.8
2023-04-18T16:05:00.663Z,14.8
2023-04-18T16:10:00.592Z,17.3
2023-04-18T16:15:00.675Z,14.8
2023-04-18T16:25:00.633Z,11.9
2023-04-18T16:30:00.530Z,16.2
2023-04-18T16:35:00.466Z,14.4
2023-04-18T16:40:00.689Z,16.9
2023-04-18T16:45:00.462Z,15.1
2023-04-18T16:50:01.010Z,15.8
2023-04-18T16:55:00.385Z,19.4
2023-04-18T17:00:00.570Z,20.5
2023-04-18T17:05:00.794Z,19.4
2023-04-18T17:10:00.540Z,14.8
2023-04-18T17:15:00.560Z,20.5
2023-04-18T17:20:00.478Z,22.3
2023-04-18T17:25:00.421Z,22.7
2023-04-18T17:30:00.504Z,15.8
2023-04-18T17:35:00.497Z,18.4
2023-04-18T17:40:00.566Z,23.4
2023-04-18T17:45:00.520Z,18.7
2023-04-18T17:50:00.460Z,21.6
2023-04-18T17:55:00.492Z,19.4
2023-04-18T18:00:00.520Z,16.9
2023-04-18T18:05:00.444Z,17.6
2023-04-18T18:10:00.422Z,18.7
2023-04-18T18:15:00.486Z,19.1
2023-04-18T18:20:00.460Z,11.5
2023-04-18T18:25:00.425Z,16.9
2023-04-18T18:30:00.522Z,15.1
2023-04-18T18:35:00.422Z,14.8
2023-04-18T18:40:00.535Z,19.8
2023-04-18T18:45:00.403Z,16.2
2023-04-18T18:50:00.410Z,18.0
2023-04-18T18:55:00.436Z,13.7
2023-04-18T19:00:00.447Z,20.2
2023-04-18T19:05:01.134Z,18.4
2023-04-18T19:10:00.488Z,16.6
2023-04-18T19:15:00.486Z,16.9
2023-04-18T19:20:00.490Z,23.0
2023-04-18T19:25:00.408Z,13.7
2023-04-18T19:30:00.523Z,18.7
2023-04-18T19:35:00.489Z,15.1
2023-04-18T19:40:00.502Z,18.7
2023-04-18T19:45:00.494Z,16.9
2023-04-18T19:50:00.411Z,10.1
2023-04-18T19:55:00.394Z,19.1
2023-04-18T20:00:00.446Z,14.8
2023-04-18T20:05:01.112Z,16.9
2023-04-18T20:10:00.636Z,9.7
2023-04-18T20:15:00.424Z,11.9
2023-04-18T20:20:00.459Z,11.9
2023-04-18T20:25:00.346Z,15.5
2023-04-18T20:30:00.418Z,10.4
2023-04-18T20:35:00.395Z,14.8
2023-04-18T20:40:00.481Z,14.0
2023-04-18T20:45:00.482Z,14.0
2023-04-18T20:50:00.408Z,15.1
2023-04-18T20:55:00.401Z,13.7
2023-04-18T21:00:00.440Z,11.2
2023-04-18T21:05:00.409Z,11.9
2023-04-18T21:10:00.459Z,11.5
2023-04-18T21:15:00.350Z,14.8
2023-04-18T21:20:00.500Z,10.8
2023-04-18T21:25:00.400Z,8.3
2023-04-18T21:30:05.139Z,11.2
2023-04-18T21:35:00.402Z,9.7
2023-04-18T21:40:00.406Z,10.1
2023-04-18T21:45:00.441Z,11.9
2023-04-18T21:50:00.485Z,13.0
2023-04-18T21:55:00.460Z,13.0
2023-04-18T22:00:00.466Z,10.8
2023-04-18T22:05:00.459Z,14.0
2023-04-18T22:10:00.476Z,8.3
2023-04-18T22:15:00.420Z,13.0
2023-04-18T22:20:00.419Z,7.6
2023-04-18T22:25:00.379Z,9.7
2023-04-18T22:30:00.382Z,15.1
2023-04-18T22:35:00.360Z,14.8
2023-04-18T22:40:00.429Z,10.4
2023-04-18T22:45:00.414Z,9.4
2023-04-18T22:50:00.381Z,13.3
2023-04-18T22:55:00.361Z,14.0
2023-04-18T23:00:00.388Z,10.1
2023-04-18T23:05:00.721Z,13.7
2023-04-18T23:10:00.502Z,13.0
2023-04-18T23:15:00.421Z,9.7
2023-04-18T23:20:00.480Z,15.5
2023-04-18T23:25:00.399Z,16.2
2023-04-18T23:30:00.381Z,16.6
2023-04-18T23:35:00.414Z,14.8
2023-04-18T23:40:00.463Z,20.2
2023-04-18T23:45:00.392Z,18.7
2023-04-18T23:50:00.442Z,15.5
2023-04-18T23:55:00.393Z,14.8
